createdAt,value
2019-04-14T00:00:55.411Z,47.80
2019-04-14T00:01:55.063Z,49.10
2019-04-14T00:02:55.495Z,48.70
2019-04-14T00:03:54.968Z,47.50
2019-04-14T00:04:55.129Z,46.80
2019-04-14T00:05:56.014Z,45.90
2019-04-14T00:06:54.878Z,45.30
2019-04-14T00:07:55.922Z,47.20
2019-04-14T00:08:54.758Z,45.80
2019-04-14T00:09:54.718Z,47.30
2019-04-14T00:10:55.092Z,47.90
2019-04-14T00:11:54.884Z,47.80
2019-04-14T00:12:55.556Z,48.50
2019-04-14T00:13:54.606Z,48.00
2019-04-14T00:14:55.413Z,48.60
2019-04-14T00:15:55.035Z,50.00
2019-04-14T00:16:55.341Z,50.60
2019-04-14T00:17:54.593Z,51.00
2019-04-14T00:18:55.447Z,50.00
2019-04-14T00:19:54.485Z,49.50
2019-04-14T00:20:54.210Z,49.60
2019-04-14T00:22:03.385Z,49.00
2019-04-14T00:22:54.090Z,49.80
2019-04-14T00:23:54.446Z,50.90
2019-04-14T00:24:53.996Z,51.30
2019-04-14T00:25:54.399Z,50.10
2019-04-14T00:26:55.131Z,52.30
2019-04-14T00:27:54.333Z,51.40
2019-04-14T00:28:53.818Z,50.20
2019-04-14T00:29:54.568Z,51.50
2019-04-14T00:30:53.749Z,52.50
2019-04-14T00:31:55.067Z,52.10
2019-04-14T00:32:53.630Z,49.40
2019-04-14T00:33:54.266Z,50.10
2019-04-14T00:34:53.541Z,52.60
2019-04-14T00:35:53.873Z,51.70
2019-04-14T00:36:54.462Z,51.50
2019-04-14T00:37:53.443Z,51.90
2019-04-14T00:38:54.285Z,51.80
2019-04-14T00:39:53.359Z,52.40
2019-04-14T00:40:54.003Z,49.00
2019-04-14T00:41:57.219Z,51.10
2019-04-14T00:42:53.807Z,50.50
2019-04-14T00:43:53.119Z,49.60
2019-04-14T00:44:53.825Z,50.30
2019-04-14T00:45:56.366Z,51.20
2019-04-14T00:46:53.829Z,51.20
2019-04-14T00:48:00.999Z,51.20
2019-04-14T00:48:53.869Z,50.60
2019-04-14T00:49:53.056Z,49.70
2019-04-14T00:50:53.852Z,51.20
2019-04-14T00:51:52.885Z,51.00
2019-04-14T00:52:52.737Z,50.90
2019-04-14T00:53:53.575Z,50.00
2019-04-14T00:54:52.610Z,48.50
2019-04-14T00:55:53.307Z,51.40
2019-04-14T00:56:52.520Z,50.40
2019-04-14T00:57:52.990Z,50.30
2019-04-14T00:58:52.455Z,50.30
2019-04-14T00:59:53.097Z,48.70
2019-04-14T01:00:53.687Z,48.70
2019-04-14T01:01:52.743Z,50.00
2019-04-14T01:02:52.243Z,49.20
2019-04-14T01:03:52.645Z,48.40
2019-04-14T01:04:53.309Z,49.10
2019-04-14T01:05:52.608Z,49.40
2019-04-14T01:06:53.269Z,48.90
2019-04-14T01:07:52.319Z,49.30
2019-04-14T01:08:53.216Z,48.80
2019-04-14T01:09:53.097Z,48.60
2019-04-14T01:10:51.993Z,49.50
2019-04-14T01:11:53.079Z,46.70
2019-04-14T01:12:51.865Z,49.10
2019-04-14T01:13:52.882Z,49.60
2019-04-14T01:14:51.815Z,48.60
2019-04-14T01:16:00.560Z,48.40
2019-04-14T01:16:51.815Z,47.80
2019-04-14T01:17:52.780Z,47.50
2019-04-14T01:18:51.583Z,48.10
2019-04-14T01:19:52.686Z,49.10
2019-04-14T01:20:51.476Z,49.00
2019-04-14T01:21:52.426Z,48.70
2019-04-14T01:22:51.312Z,49.70
2019-04-14T01:23:52.265Z,49.80
2019-04-14T01:24:51.230Z,50.60
2019-04-14T01:25:52.073Z,50.10
2019-04-14T01:26:51.156Z,49.90
2019-04-14T01:27:51.745Z,52.30
2019-04-14T01:28:51.038Z,50.40
2019-04-14T01:29:51.642Z,50.80
2019-04-14T01:30:52.183Z,51.00
2019-04-14T01:31:51.537Z,50.70
2019-04-14T01:32:52.113Z,51.30
2019-04-14T01:33:51.164Z,51.00
2019-04-14T01:34:52.725Z,51.90
2019-04-14T01:35:51.039Z,51.40
2019-04-14T01:36:51.714Z,51.80
2019-04-14T01:37:50.762Z,51.60
2019-04-14T01:38:51.318Z,52.50
2019-04-14T01:39:50.530Z,51.30
2019-04-14T01:40:50.991Z,52.30
2019-04-14T01:41:50.463Z,51.80
2019-04-14T01:42:50.603Z,52.90
2019-04-14T01:43:51.639Z,50.80
2019-04-14T01:44:50.377Z,50.80
2019-04-14T01:46:04.293Z,52.60
2019-04-14T01:46:50.243Z,52.30
2019-04-14T01:47:51.075Z,51.10
2019-04-14T01:48:50.111Z,50.70
2019-04-14T01:49:50.841Z,52.00
2019-04-14T01:50:50.044Z,52.30
2019-04-14T01:51:50.719Z,53.40
2019-04-14T01:52:50.149Z,53.70
2019-04-14T01:53:50.962Z,53.30
2019-04-14T01:54:49.834Z,52.90
2019-04-14T01:55:50.525Z,55.40
2019-04-14T01:56:49.752Z,53.80
2019-04-14T01:57:50.310Z,53.70
2019-04-14T01:58:49.668Z,54.70
2019-04-14T01:59:50.347Z,54.20
2019-04-14T02:00:51.171Z,55.00
2019-04-14T02:01:49.940Z,54.10
2019-04-14T02:02:49.500Z,54.80
2019-04-14T02:03:49.866Z,55.90
2019-04-14T02:04:50.513Z,55.10
2019-04-14T02:05:49.608Z,55.50
2019-04-14T02:06:50.484Z,54.70
2019-04-14T02:07:49.447Z,56.60
2019-04-14T02:08:50.081Z,55.50
2019-04-14T02:09:49.148Z,56.20
2019-04-14T02:10:49.913Z,57.60
2019-04-14T02:11:49.044Z,56.60
2019-04-14T02:12:49.587Z,57.80
2019-04-14T02:13:48.964Z,54.50
2019-04-14T02:14:49.516Z,55.80
2019-04-14T02:15:48.873Z,56.80
2019-04-14T02:16:54.141Z,57.00
2019-04-14T02:17:48.778Z,57.30
2019-04-14T02:18:51.784Z,56.20
2019-04-14T02:19:48.678Z,57.10
2019-04-14T02:20:49.060Z,55.70
2019-04-14T02:21:49.783Z,58.60
2019-04-14T02:22:48.565Z,57.20
2019-04-14T02:23:49.691Z,57.30
2019-04-14T02:24:48.457Z,56.90
2019-04-14T02:25:49.363Z,57.50
2019-04-14T02:26:48.349Z,56.30
2019-04-14T02:27:49.346Z,57.10
2019-04-14T02:28:48.329Z,57.10
2019-04-14T02:29:49.401Z,56.90
2019-04-14T02:30:57.262Z,57.70
2019-04-14T02:32:18.560Z,58.90
2019-04-14T02:33:13.560Z,58.70
2019-04-14T02:34:17.049Z,59.10
2019-04-14T02:35:25.534Z,59.80
2019-04-14T02:36:21.697Z,58.70
2019-04-14T02:37:26.649Z,57.60
2019-04-14T02:38:23.476Z,58.80
2019-04-14T02:39:22.393Z,58.30
2019-04-14T02:40:21.530Z,58.00
2019-04-14T02:41:18.352Z,57.10
2019-04-14T02:43:23.798Z,58.90
2019-04-14T02:44:27.037Z,57.60
2019-04-14T02:45:19.171Z,58.30
2019-04-14T02:46:09.991Z,59.80
2019-04-14T02:47:50.372Z,58.90
2019-04-14T02:48:25.553Z,61.20
2019-04-14T02:49:14.760Z,59.10
2019-04-14T02:50:14.217Z,57.90
2019-04-14T02:51:19.145Z,60.00
2019-04-14T02:52:12.333Z,59.00
2019-04-14T02:53:18.444Z,59.30
2019-04-14T02:54:13.855Z,58.50
2019-04-14T02:55:08.531Z,60.00
2019-04-14T02:56:15.846Z,60.30
2019-04-14T02:57:16.755Z,59.60
2019-04-14T02:58:18.270Z,58.90
2019-04-14T02:59:28.990Z,59.50
2019-04-14T03:00:21.649Z,60.20
2019-04-14T03:01:35.026Z,59.70
2019-04-14T03:02:24.790Z,59.60
2019-04-14T03:03:16.918Z,59.80
2019-04-14T03:04:12.753Z,59.70
2019-04-14T03:05:13.352Z,60.10
2019-04-14T03:07:14.422Z,61.00
2019-04-14T03:08:22.267Z,60.80
2019-04-14T03:09:22.097Z,61.90
2019-04-14T03:10:12.575Z,60.80
2019-04-14T03:11:09.566Z,61.00
2019-04-14T03:12:11.443Z,62.60
2019-04-14T03:13:15.329Z,61.00
2019-04-14T03:15:13.010Z,62.20
2019-04-14T03:16:13.797Z,62.20
2019-04-14T03:18:24.004Z,61.60
2019-04-14T03:19:14.604Z,60.80
2019-04-14T03:20:25.911Z,63.10
2019-04-14T03:21:13.463Z,61.60
2019-04-14T03:22:26.436Z,62.30
2019-04-14T03:23:19.100Z,62.10
2019-04-14T03:25:00.494Z,62.20
2019-04-14T03:26:04.860Z,62.00
2019-04-14T03:27:17.428Z,60.60
2019-04-14T03:28:14.383Z,61.10
2019-04-14T03:29:10.731Z,61.00
2019-04-14T03:30:34.162Z,59.80
2019-04-14T03:32:31.869Z,59.70
2019-04-14T03:34:29.264Z,59.00
2019-04-14T03:35:47.713Z,59.20
2019-04-14T03:36:43.898Z,58.00
2019-04-14T03:39:17.596Z,57.00
2019-04-14T03:40:08.476Z,56.90
2019-04-14T03:41:17.297Z,55.70
2019-04-14T03:42:08.710Z,56.70
2019-04-14T03:43:25.455Z,57.30
2019-04-14T03:44:11.888Z,56.10
2019-04-14T03:45:18.518Z,56.90
2019-04-14T03:47:13.465Z,55.80
2019-04-14T03:49:22.032Z,57.80
2019-04-14T03:50:06.029Z,55.00
2019-04-14T03:51:17.394Z,55.40
2019-04-14T03:52:09.911Z,54.30
2019-04-14T03:54:06.221Z,55.70
2019-04-14T03:55:01.189Z,56.60
2019-04-14T03:55:49.347Z,55.80
2019-04-14T03:56:44.312Z,55.70
2019-04-14T03:57:44.136Z,55.00
2019-04-14T03:58:44.416Z,55.10
2019-04-14T03:59:44.052Z,54.80
2019-04-14T04:00:44.345Z,55.40
2019-04-14T04:01:43.950Z,53.50
2019-04-14T04:02:44.452Z,54.20
2019-04-14T04:03:43.859Z,55.00
2019-04-14T04:04:44.494Z,55.20
2019-04-14T04:05:43.769Z,55.80
2019-04-14T04:06:44.249Z,54.10
2019-04-14T04:07:43.694Z,54.10
2019-04-14T04:08:44.109Z,55.30
2019-04-14T04:09:43.592Z,56.40
2019-04-14T04:10:44.291Z,55.70
2019-04-14T04:11:43.533Z,56.80
2019-04-14T04:12:44.360Z,56.40
2019-04-14T04:13:43.388Z,55.50
2019-04-14T04:14:44.214Z,55.80
2019-04-14T04:15:43.298Z,54.60
2019-04-14T04:16:43.967Z,53.50
2019-04-14T04:17:43.249Z,54.00
2019-04-14T04:18:51.243Z,54.20
2019-04-14T04:19:43.115Z,53.10
2019-04-14T04:20:43.441Z,53.90
2019-04-14T04:21:43.027Z,52.90
2019-04-14T04:22:43.452Z,52.80
2019-04-14T04:23:42.944Z,52.40
2019-04-14T04:24:43.277Z,51.10
2019-04-14T04:25:42.833Z,51.80
2019-04-14T04:26:43.000Z,51.90
2019-04-14T04:27:43.978Z,51.30
2019-04-14T04:28:42.892Z,52.10
2019-04-14T04:29:42.650Z,51.40
2019-04-14T04:30:42.694Z,53.80
2019-04-14T04:31:43.614Z,51.50
2019-04-14T04:32:42.625Z,50.00
2019-04-14T04:33:43.624Z,52.10
2019-04-14T04:34:42.432Z,50.20
2019-04-14T04:35:43.401Z,49.70
2019-04-14T04:36:42.331Z,50.00
2019-04-14T04:37:43.340Z,49.80
2019-04-14T04:38:42.237Z,50.20
2019-04-14T04:39:43.195Z,50.10
2019-04-14T04:40:42.162Z,50.40
2019-04-14T04:41:42.885Z,50.10
2019-04-14T04:42:42.053Z,50.10
2019-04-14T04:43:42.956Z,48.90
2019-04-14T04:44:42.188Z,50.20
2019-04-14T04:45:43.025Z,49.90
2019-04-14T04:46:41.878Z,51.60
2019-04-14T04:47:42.672Z,50.20
2019-04-14T04:48:41.794Z,50.20
2019-04-14T04:49:42.658Z,49.40
2019-04-14T04:50:41.678Z,49.50
2019-04-14T04:51:42.143Z,50.00
2019-04-14T04:52:41.601Z,49.80
2019-04-14T04:53:41.980Z,48.70
2019-04-14T04:54:42.749Z,51.20
2019-04-14T04:55:41.654Z,50.70
2019-04-14T04:56:42.624Z,49.70
2019-04-14T04:57:41.610Z,50.70
2019-04-14T04:58:41.366Z,50.40
2019-04-14T04:59:41.297Z,51.10
2019-04-14T05:00:41.691Z,50.10
2019-04-14T05:01:41.172Z,51.30
2019-04-14T05:02:41.818Z,50.20
2019-04-14T05:03:41.085Z,52.30
2019-04-14T05:04:41.591Z,50.20
2019-04-14T05:05:40.997Z,50.20
2019-04-14T05:06:41.634Z,49.70
2019-04-14T05:07:40.893Z,51.70
2019-04-14T05:08:41.329Z,50.00
2019-04-14T05:09:40.833Z,50.00
2019-04-14T05:10:41.389Z,50.00
2019-04-14T05:11:40.720Z,50.70
2019-04-14T05:12:41.361Z,48.90
2019-04-14T05:13:40.622Z,48.90
2019-04-14T05:14:41.230Z,50.20
2019-04-14T05:15:40.570Z,50.70
2019-04-14T05:16:40.491Z,51.10
2019-04-14T05:17:40.942Z,48.70
2019-04-14T05:18:40.401Z,48.50
2019-04-14T05:19:41.671Z,49.30
2019-04-14T05:20:40.309Z,50.00
2019-04-14T05:21:40.939Z,48.40
2019-04-14T05:22:40.213Z,48.90
2019-04-14T05:23:40.995Z,49.80
2019-04-14T05:24:40.147Z,48.80
2019-04-14T05:25:40.801Z,47.90
2019-04-14T05:26:40.028Z,47.20
2019-04-14T05:27:40.899Z,49.20
2019-04-14T05:28:39.939Z,47.90
2019-04-14T05:29:40.767Z,47.20
2019-04-14T05:30:39.881Z,47.00
2019-04-14T05:31:40.397Z,46.30
2019-04-14T05:32:39.763Z,48.60
2019-04-14T05:33:40.430Z,46.10
2019-04-14T05:34:39.692Z,47.30
2019-04-14T05:35:40.138Z,45.60
2019-04-14T05:36:39.574Z,46.60
2019-04-14T05:37:40.091Z,45.90
2019-04-14T05:38:40.658Z,45.60
2019-04-14T05:39:39.673Z,45.90
2019-04-14T05:40:40.713Z,45.90
2019-04-14T05:41:40.872Z,46.40
2019-04-14T05:42:40.646Z,45.80
2019-04-14T05:43:48.171Z,45.70
2019-04-14T05:44:40.352Z,43.90
2019-04-14T05:45:39.517Z,44.10
2019-04-14T05:46:40.261Z,45.10
2019-04-14T05:47:39.385Z,45.90
2019-04-14T05:48:40.296Z,45.20
2019-04-14T05:49:44.889Z,44.70
2019-04-14T05:50:39.996Z,44.10
2019-04-14T05:51:39.393Z,43.70
2019-04-14T05:52:38.883Z,44.20
2019-04-14T05:53:39.402Z,45.00
2019-04-14T05:54:38.762Z,43.20
2019-04-14T05:55:39.548Z,43.10
2019-04-14T05:56:39.536Z,42.70
2019-04-14T05:57:39.487Z,41.70
2019-04-14T05:58:38.611Z,42.10
2019-04-14T05:59:39.576Z,43.40
2019-04-14T06:00:38.636Z,41.80
2019-04-14T06:01:39.221Z,42.50
2019-04-14T06:02:38.432Z,42.10
2019-04-14T06:03:38.627Z,41.70
2019-04-14T06:04:39.560Z,42.40
2019-04-14T06:05:38.322Z,43.80
2019-04-14T06:06:38.224Z,41.10
2019-04-14T06:07:38.182Z,40.90
2019-04-14T06:08:38.137Z,40.10
2019-04-14T06:09:38.102Z,39.00
2019-04-14T06:10:38.057Z,39.40
2019-04-14T06:11:38.033Z,39.10
2019-04-14T06:12:37.963Z,40.60
2019-04-14T06:13:37.926Z,38.40
2019-04-14T06:14:37.878Z,39.40
2019-04-14T06:15:37.840Z,40.00
2019-04-14T06:16:37.817Z,37.80
2019-04-14T06:17:37.744Z,37.60
2019-04-14T06:18:37.704Z,37.30
2019-04-14T06:19:40.527Z,38.50
2019-04-14T06:20:37.612Z,38.80
2019-04-14T06:21:37.602Z,37.80
2019-04-14T06:22:37.556Z,39.50
2019-04-14T06:23:37.489Z,37.00
2019-04-14T06:24:37.440Z,38.20
2019-04-14T06:25:37.389Z,36.20
2019-04-14T06:26:37.348Z,36.00
2019-04-14T06:27:37.311Z,38.00
2019-04-14T06:28:37.295Z,36.30
2019-04-14T06:29:37.221Z,37.10
2019-04-14T06:30:37.171Z,37.30
2019-04-14T06:31:37.152Z,38.80
2019-04-14T06:32:37.112Z,38.00
2019-04-14T06:33:37.048Z,35.80
2019-04-14T06:34:37.006Z,37.40
2019-04-14T06:35:36.960Z,36.00
2019-04-14T06:36:36.939Z,37.90
2019-04-14T06:37:36.889Z,37.40
2019-04-14T06:38:36.825Z,37.60
2019-04-14T06:39:36.779Z,37.70
2019-04-14T06:40:36.740Z,37.10
2019-04-14T06:41:36.702Z,35.80
2019-04-14T06:42:36.685Z,36.20
2019-04-14T06:43:48.110Z,36.50
2019-04-14T06:44:36.559Z,35.80
2019-04-14T06:45:36.524Z,36.40
2019-04-14T06:46:36.514Z,35.40
2019-04-14T06:47:36.469Z,34.80
2019-04-14T06:48:36.437Z,36.20
2019-04-14T06:49:48.216Z,34.70
2019-04-14T06:50:36.308Z,33.60
2019-04-14T06:51:36.264Z,33.10
2019-04-14T06:52:36.221Z,33.80
2019-04-14T06:53:36.200Z,33.30
2019-04-14T06:54:36.177Z,33.20
2019-04-14T06:55:36.098Z,32.60
2019-04-14T06:56:36.072Z,32.00
2019-04-14T06:57:36.005Z,31.30
2019-04-14T06:58:35.986Z,32.20
2019-04-14T06:59:35.926Z,32.40
2019-04-14T07:00:35.897Z,32.10
2019-04-14T07:01:35.836Z,31.70
2019-04-14T07:02:35.822Z,30.80
2019-04-14T07:03:35.773Z,30.60
2019-04-14T07:04:35.706Z,31.30
2019-04-14T07:05:35.677Z,31.50
2019-04-14T07:06:35.633Z,30.50
2019-04-14T07:07:35.620Z,31.40
2019-04-14T07:08:35.552Z,32.20
2019-04-14T07:09:35.502Z,31.20
2019-04-14T07:10:35.464Z,30.20
2019-04-14T07:11:35.418Z,30.60
2019-04-14T07:12:35.384Z,30.10
2019-04-14T07:13:35.387Z,29.90
2019-04-14T07:14:35.307Z,30.00
2019-04-14T07:15:35.259Z,31.10
2019-04-14T07:16:35.225Z,31.80
2019-04-14T07:17:35.206Z,31.30
2019-04-14T07:18:35.142Z,31.50
2019-04-14T07:19:35.092Z,32.00
2019-04-14T07:20:35.063Z,30.40
2019-04-14T07:21:35.018Z,31.60
2019-04-14T07:22:34.968Z,31.80
2019-04-14T07:23:34.953Z,31.10
2019-04-14T07:24:34.893Z,29.90
2019-04-14T07:25:34.864Z,31.80
2019-04-14T07:26:34.827Z,30.40
2019-04-14T07:27:34.784Z,30.60
2019-04-14T07:28:34.817Z,30.90
2019-04-14T07:29:34.690Z,29.70
2019-04-14T07:30:34.636Z,29.30
2019-04-14T07:31:34.596Z,29.70
2019-04-14T07:32:34.560Z,30.30
2019-04-14T07:33:34.537Z,28.80
2019-04-14T07:34:36.331Z,29.10
2019-04-14T07:35:34.438Z,30.10
2019-04-14T07:36:34.393Z,29.80
2019-04-14T07:37:34.355Z,28.80
2019-04-14T07:38:34.384Z,29.30
2019-04-14T07:39:34.304Z,28.80
2019-04-14T07:40:34.255Z,29.80
2019-04-14T07:41:34.188Z,29.70
2019-04-14T07:42:34.152Z,30.60
2019-04-14T07:43:34.115Z,29.50
2019-04-14T07:44:34.092Z,29.40
2019-04-14T07:45:34.059Z,30.20
2019-04-14T07:46:34.030Z,30.00
2019-04-14T07:47:33.993Z,29.40
2019-04-14T07:48:33.914Z,30.30
2019-04-14T07:49:33.896Z,29.50
2019-04-14T07:50:34.042Z,30.10
2019-04-14T07:51:33.821Z,28.60
2019-04-14T07:52:33.934Z,30.00
2019-04-14T07:53:33.732Z,29.20
2019-04-14T07:54:33.724Z,29.10
2019-04-14T07:55:33.859Z,29.40
2019-04-14T07:56:33.629Z,29.80
2019-04-14T07:57:33.559Z,29.90
2019-04-14T07:58:33.539Z,28.70
2019-04-14T07:59:33.548Z,29.00
2019-04-14T08:00:33.455Z,27.50
2019-04-14T08:01:33.687Z,28.20
2019-04-14T08:02:33.415Z,27.70
2019-04-14T08:03:33.375Z,28.50
2019-04-14T08:04:33.296Z,28.40
2019-04-14T08:05:33.252Z,28.10
2019-04-14T08:06:33.329Z,27.30
2019-04-14T08:07:33.201Z,26.70
2019-04-14T08:08:33.193Z,27.50
2019-04-14T08:09:33.194Z,26.80
2019-04-14T08:10:33.359Z,28.00
2019-04-14T08:11:33.008Z,28.50
2019-04-14T08:12:35.191Z,28.40
2019-04-14T08:13:32.948Z,27.10
2019-04-14T08:14:32.889Z,27.40
2019-04-14T08:15:32.852Z,28.00
2019-04-14T08:16:32.826Z,27.70
2019-04-14T08:17:32.806Z,27.80
2019-04-14T08:18:32.779Z,28.90
2019-04-14T08:19:32.837Z,28.80
2019-04-14T08:20:32.661Z,27.60
2019-04-14T08:21:32.677Z,28.10
2019-04-14T08:22:32.621Z,28.50
2019-04-14T08:23:32.620Z,28.60
2019-04-14T08:24:32.525Z,26.90
2019-04-14T08:25:32.513Z,27.20
2019-04-14T08:26:33.338Z,28.00
2019-04-14T08:27:32.417Z,26.50
2019-04-14T08:28:32.395Z,26.50
2019-04-14T08:29:32.355Z,26.10
2019-04-14T08:30:32.312Z,26.60
2019-04-14T08:31:32.244Z,25.60
2019-04-14T08:32:32.205Z,27.00
2019-04-14T08:33:32.158Z,26.30
2019-04-14T08:34:32.112Z,26.70
2019-04-14T08:35:32.089Z,25.00
2019-04-14T08:36:33.360Z,25.70
2019-04-14T08:37:31.995Z,25.70
2019-04-14T08:38:31.964Z,25.50
2019-04-14T08:39:31.964Z,24.40
2019-04-14T08:40:31.887Z,23.70
2019-04-14T08:41:32.315Z,24.70
2019-04-14T08:42:31.815Z,24.30
2019-04-14T08:43:31.776Z,24.30
2019-04-14T08:44:31.741Z,24.00
2019-04-14T08:45:31.694Z,24.60
2019-04-14T08:46:31.680Z,24.80
2019-04-14T08:47:31.624Z,23.70
2019-04-14T08:48:31.587Z,24.70
2019-04-14T08:49:31.562Z,23.80
2019-04-14T08:50:39.430Z,24.40
2019-04-14T08:51:31.470Z,24.20
2019-04-14T08:52:31.458Z,24.10
2019-04-14T08:53:31.399Z,23.50
2019-04-14T08:54:31.363Z,23.00
2019-04-14T08:55:31.332Z,25.00
2019-04-14T08:56:31.292Z,24.70
2019-04-14T08:57:31.312Z,23.70
2019-04-14T08:58:31.212Z,24.10
2019-04-14T08:59:31.165Z,22.80
2019-04-14T09:00:31.144Z,22.90
2019-04-14T09:01:31.101Z,23.40
2019-04-14T09:02:31.144Z,22.70
2019-04-14T09:03:31.034Z,22.20
2019-04-14T09:04:30.991Z,23.10
2019-04-14T09:05:30.947Z,23.30
2019-04-14T09:06:30.912Z,23.20
2019-04-14T09:07:30.880Z,22.60
2019-04-14T09:08:30.869Z,22.90
2019-04-14T09:09:30.810Z,22.60
2019-04-14T09:10:30.765Z,21.00
2019-04-14T09:11:30.726Z,20.70
2019-04-14T09:12:30.692Z,20.50
2019-04-14T09:13:30.698Z,20.30
2019-04-14T09:14:30.982Z,21.40
2019-04-14T09:15:30.720Z,20.10
2019-04-14T09:16:30.555Z,19.70
2019-04-14T09:17:30.514Z,19.70
2019-04-14T09:18:30.487Z,19.10
2019-04-14T09:19:30.471Z,19.40
2019-04-14T09:20:30.405Z,19.00
2019-04-14T09:21:30.373Z,18.80
2019-04-14T09:22:30.336Z,18.60
2019-04-14T09:23:30.566Z,19.00
2019-04-14T09:24:30.267Z,18.90
2019-04-14T09:25:30.264Z,19.50
2019-04-14T09:26:30.200Z,18.90
2019-04-14T09:27:30.161Z,18.30
2019-04-14T09:28:30.233Z,18.00
2019-04-14T09:29:30.259Z,18.10
2019-04-14T09:30:30.059Z,18.70
2019-04-14T09:31:30.015Z,18.00
2019-04-14T09:32:29.977Z,17.60
2019-04-14T09:33:29.972Z,18.60
2019-04-14T09:34:29.959Z,17.70
2019-04-14T09:35:29.962Z,18.50
2019-04-14T09:36:29.842Z,18.50
2019-04-14T09:37:29.877Z,17.90
2019-04-14T09:38:29.764Z,18.40
2019-04-14T09:39:29.838Z,17.30
2019-04-14T09:40:29.877Z,17.80
2019-04-14T09:41:29.918Z,17.60
2019-04-14T09:42:29.629Z,18.10
2019-04-14T09:43:29.586Z,17.40
2019-04-14T09:44:29.658Z,17.90
2019-04-14T09:45:29.673Z,17.90
2019-04-14T09:46:29.496Z,17.80
2019-04-14T09:47:29.456Z,18.20
2019-04-14T09:48:29.416Z,17.90
2019-04-14T09:49:29.563Z,17.20
2019-04-14T09:50:29.362Z,18.20
2019-04-14T09:51:29.307Z,18.20
2019-04-14T09:52:29.269Z,16.90
2019-04-14T09:53:29.254Z,18.10
2019-04-14T09:54:29.227Z,18.00
2019-04-14T09:55:29.164Z,17.50
2019-04-14T09:56:29.393Z,17.60
2019-04-14T09:57:29.120Z,17.50
2019-04-14T09:58:29.061Z,17.00
2019-04-14T09:59:29.141Z,16.40
2019-04-14T10:00:29.024Z,17.40
2019-04-14T10:01:29.015Z,16.60
2019-04-14T10:02:28.999Z,16.20
2019-04-14T10:03:29.118Z,16.80
2019-04-14T10:04:28.844Z,15.90
2019-04-14T10:05:28.816Z,15.40
2019-04-14T10:06:28.778Z,15.90
2019-04-14T10:07:28.757Z,16.30
2019-04-14T10:08:28.855Z,16.40
2019-04-14T10:09:28.761Z,16.00
2019-04-14T10:10:28.637Z,15.90
2019-04-14T10:11:28.607Z,15.80
2019-04-14T10:12:28.575Z,15.80
2019-04-14T10:13:28.543Z,15.90
2019-04-14T10:14:28.889Z,15.60
2019-04-14T10:15:28.466Z,15.90
2019-04-14T10:16:28.430Z,15.30
2019-04-14T10:17:28.424Z,16.10
2019-04-14T10:18:28.367Z,15.30
2019-04-14T10:19:28.344Z,15.70
2019-04-14T10:20:28.562Z,15.50
2019-04-14T10:21:28.833Z,15.50
2019-04-14T10:22:34.083Z,15.10
2019-04-14T10:23:28.191Z,15.90
2019-04-14T10:24:28.157Z,15.40
2019-04-14T10:25:28.122Z,15.50
2019-04-14T10:26:28.094Z,15.40
2019-04-14T10:27:28.299Z,15.40
2019-04-14T10:28:28.014Z,15.70
2019-04-14T10:29:28.111Z,15.30
2019-04-14T10:30:28.018Z,14.70
2019-04-14T10:31:27.932Z,14.20
2019-04-14T10:32:27.890Z,15.20
2019-04-14T10:33:27.867Z,14.40
2019-04-14T10:34:27.809Z,14.70
2019-04-14T10:35:27.774Z,14.70
2019-04-14T10:36:27.775Z,15.20
2019-04-14T10:37:27.718Z,14.90
2019-04-14T10:38:27.677Z,14.60
2019-04-14T10:39:27.887Z,14.70
2019-04-14T10:40:27.619Z,14.30
2019-04-14T10:41:27.571Z,15.40
2019-04-14T10:42:27.792Z,14.80
2019-04-14T10:43:27.508Z,14.50
2019-04-14T10:44:27.473Z,15.00
2019-04-14T10:45:27.432Z,15.40
2019-04-14T10:46:27.396Z,14.30
2019-04-14T10:47:27.363Z,15.10
2019-04-14T10:48:27.422Z,14.80
2019-04-14T10:49:27.309Z,15.70
2019-04-14T10:50:31.014Z,14.40
2019-04-14T10:51:30.353Z,15.10
2019-04-14T10:52:27.348Z,14.60
2019-04-14T10:53:27.161Z,14.60
2019-04-14T10:54:27.148Z,14.70
2019-04-14T10:55:27.091Z,14.00
2019-04-14T10:56:27.067Z,14.70
2019-04-14T10:57:27.044Z,14.40
2019-04-14T10:58:27.024Z,14.40
2019-04-14T10:59:27.545Z,14.30
2019-04-14T11:00:26.917Z,14.70
2019-04-14T11:01:26.898Z,13.80
2019-04-14T11:02:27.285Z,13.80
2019-04-14T11:03:26.822Z,13.70
2019-04-14T11:04:26.813Z,14.00
2019-04-14T11:05:26.746Z,14.70
2019-04-14T11:06:26.711Z,13.20
2019-04-14T11:07:26.857Z,13.20
2019-04-14T11:08:26.675Z,13.50
2019-04-14T11:09:26.643Z,13.50
2019-04-14T11:10:26.584Z,14.00
2019-04-14T11:11:26.550Z,14.40
2019-04-14T11:12:36.145Z,14.10
2019-04-14T11:13:35.072Z,14.10
2019-04-14T11:14:26.440Z,13.60
2019-04-14T11:15:26.443Z,13.70
2019-04-14T11:16:26.375Z,13.00
2019-04-14T11:17:35.598Z,13.40
2019-04-14T11:18:35.663Z,14.50
2019-04-14T11:19:26.320Z,13.60
2019-04-14T11:20:26.235Z,13.20
2019-04-14T11:21:26.208Z,13.80
2019-04-14T11:22:26.171Z,14.00
2019-04-14T11:23:26.131Z,13.90
2019-04-14T11:24:34.678Z,13.40
2019-04-14T11:25:37.190Z,14.20
2019-04-14T11:26:26.095Z,13.00
2019-04-14T11:29:05.322Z,13.20
2019-04-14T11:30:05.244Z,13.40
2019-04-14T11:31:05.206Z,13.10
2019-04-14T11:32:05.160Z,13.30
2019-04-14T11:33:05.125Z,13.20
2019-04-14T11:34:05.072Z,13.60
2019-04-14T11:35:05.041Z,13.50
2019-04-14T11:36:05.033Z,12.70
2019-04-14T11:37:04.967Z,13.40
2019-04-14T11:38:04.934Z,13.20
2019-04-14T11:39:04.902Z,13.80
2019-04-14T11:40:04.896Z,13.60
2019-04-14T11:41:04.851Z,13.00
2019-04-14T11:42:04.807Z,12.80
2019-04-14T11:43:04.762Z,13.30
2019-04-14T11:44:04.738Z,13.70
2019-04-14T11:45:04.734Z,13.00
2019-04-14T11:46:04.795Z,13.80
2019-04-14T11:47:04.629Z,14.10
2019-04-14T11:48:04.604Z,13.50
2019-04-14T11:49:04.565Z,13.70
2019-04-14T11:50:04.525Z,13.80
2019-04-14T11:51:04.517Z,13.20
2019-04-14T11:52:04.466Z,13.90
2019-04-14T11:53:04.457Z,13.80
2019-04-14T11:54:04.426Z,13.70
2019-04-14T11:55:04.400Z,13.80
2019-04-14T11:56:04.368Z,14.20
2019-04-14T11:57:04.316Z,13.40
2019-04-14T11:58:04.258Z,14.10
2019-04-14T11:59:04.250Z,14.20
2019-04-14T12:00:04.199Z,13.70
2019-04-14T12:01:04.171Z,13.50
2019-04-14T12:02:04.165Z,12.60
2019-04-14T12:03:04.094Z,13.00
2019-04-14T12:04:04.058Z,13.00
2019-04-14T12:05:04.015Z,13.40
2019-04-14T12:06:03.996Z,13.20
2019-04-14T12:07:03.978Z,13.80
2019-04-14T12:08:03.959Z,14.90
2019-04-14T12:09:03.886Z,13.30
2019-04-14T12:10:03.841Z,13.70
2019-04-14T12:11:03.820Z,13.20
2019-04-14T12:12:03.784Z,13.30
2019-04-14T12:13:03.759Z,13.20
2019-04-14T12:14:03.705Z,14.60
2019-04-14T12:15:03.674Z,13.80
2019-04-14T12:16:03.633Z,13.40
2019-04-14T12:17:03.601Z,13.90
2019-04-14T12:18:03.583Z,14.00
2019-04-14T12:19:03.529Z,13.90
2019-04-14T12:20:03.495Z,13.70
2019-04-14T12:21:03.460Z,13.80
2019-04-14T12:22:12.465Z,14.00
2019-04-14T12:23:03.413Z,13.60
2019-04-14T12:24:03.356Z,13.40
2019-04-14T12:25:03.313Z,14.00
2019-04-14T12:26:05.468Z,13.90
2019-04-14T12:27:03.274Z,14.30
2019-04-14T12:28:03.210Z,13.80
2019-04-14T12:29:04.739Z,14.10
2019-04-14T12:30:03.534Z,13.90
2019-04-14T12:31:04.066Z,14.30
2019-04-14T12:32:03.956Z,14.50
2019-04-14T12:33:03.070Z,13.70
2019-04-14T12:34:03.000Z,14.70
2019-04-14T12:35:02.974Z,14.60
2019-04-14T12:36:02.935Z,14.20
2019-04-14T12:37:02.908Z,14.90
2019-04-14T12:38:02.895Z,14.50
2019-04-14T12:39:02.832Z,14.70
2019-04-14T12:40:02.860Z,15.20
2019-04-14T12:41:04.350Z,14.60
2019-04-14T12:42:02.748Z,14.60
2019-04-14T12:43:02.730Z,14.60
2019-04-14T12:44:02.663Z,14.30
2019-04-14T12:45:02.624Z,15.00
2019-04-14T12:46:02.605Z,14.40
2019-04-14T12:47:02.555Z,15.60
2019-04-14T12:48:02.521Z,14.70
2019-04-14T12:49:02.517Z,15.20
2019-04-14T12:50:02.457Z,15.60
2019-04-14T12:51:02.425Z,14.80
2019-04-14T12:52:02.388Z,14.60
2019-04-14T12:53:02.348Z,15.10
2019-04-14T12:54:02.343Z,15.20
2019-04-14T12:55:02.287Z,14.70
2019-04-14T12:56:02.250Z,15.10
2019-04-14T12:57:02.210Z,15.70
2019-04-14T12:58:02.173Z,14.70
2019-04-14T12:59:02.140Z,15.30
2019-04-14T13:00:02.127Z,15.40
2019-04-14T13:01:02.079Z,14.60
2019-04-14T13:02:02.050Z,14.20
2019-04-14T13:03:02.006Z,15.60
2019-04-14T13:04:01.979Z,14.50
2019-04-14T13:05:01.931Z,14.70
2019-04-14T13:06:01.920Z,15.30